Time;durP1;ratioP1;P1;durP2;ratioP2;P2;SDS_P1;SDS_P2;PMS_P1;PMS_P2;Temp;Humidity;BMP_temperature;BMP_pressure;BME280_temperature;BME280_humidity;BME280_pressure;Samples;Min_cycle;Max_cycle;Signal;HPM_P1;HPM_P2
2023/01/03 00:00:10;;;;;;;15.73;6.07;;;4.10;99.90;;;;;;5074916;28;20629;-68
2023/01/03 00:02:35;;;;;;;16.75;6.25;;;4.00;99.90;;;;;;5074722;28;20076;-69
2023/01/03 00:05:02;;;;;;;28.05;7.15;;;3.90;99.90;;;;;;5074403;28;20551;-68
2023/01/03 00:07:33;;;;;;;23.73;7.32;;;3.90;99.90;;;;;;5074485;28;20040;-69
2023/01/03 00:10:05;;;;;;;16.40;5.95;;;3.90;99.90;;;;;;5074367;28;20045;-68
2023/01/03 00:12:31;;;;;;;18.35;6.65;;;3.90;99.90;;;;;;5074652;28;20071;-68
2023/01/03 00:14:58;;;;;;;17.95;6.47;;;3.90;99.90;;;;;;5074549;28;20481;-67
2023/01/03 00:17:24;;;;;;;18.58;6.20;;;3.90;99.90;;;;;;5073070;28;20048;-69
2023/01/03 00:19:49;;;;;;;14.70;6.32;;;3.80;99.90;;;;;;5073209;28;20167;-74
2023/01/03 00:22:16;;;;;;;18.75;6.57;;;3.80;99.90;;;;;;5074204;28;20178;-68
2023/01/03 00:24:46;;;;;;;16.50;7.28;;;3.80;99.90;;;;;;5074458;28;20052;-70
2023/01/03 00:27:13;;;;;;;22.60;7.28;;;3.70;99.90;;;;;;5074243;28;20040;-69
2023/01/03 00:29:39;;;;;;;19.65;6.93;;;3.70;99.90;;;;;;5074313;28;20401;-68
2023/01/03 00:32:05;;;;;;;22.45;7.03;;;3.70;99.90;;;;;;5073343;28;20706;-70
2023/01/03 00:34:32;;;;;;;18.80;7.78;;;3.70;99.90;;;;;;5074578;28;20040;-67
2023/01/03 00:36:57;;;;;;;20.92;7.43;;;3.70;99.90;;;;;;5073411;28;20154;-71
2023/01/03 00:39:24;;;;;;;17.30;7.63;;;4.10;99.90;;;;;;5073300;28;20113;-68
2023/01/03 00:41:49;;;;;;;;;;;3.60;99.90;;;;;;5074770;28;20040;-69
2023/01/03 00:44:15;;;;;;;20.35;6.40;;;3.60;99.90;;;;;;5073602;28;19926;-67
2023/01/03 00:46:41;;;;;;;26.15;7.07;;;3.60;99.90;;;;;;5074019;28;20084;-68
2023/01/03 00:49:07;;;;;;;19.50;7.00;;;3.50;99.90;;;;;;5073901;28;20477;-68
2023/01/03 00:51:36;;;;;;;21.52;7.70;;;3.60;99.90;;;;;;5073285;28;20048;-69
2023/01/03 00:54:03;;;;;;;19.15;7.45;;;3.50;99.90;;;;;;5073734;28;20048;-69
2023/01/03 00:56:33;;;;;;;24.38;7.38;;;3.90;99.90;;;;;;5073417;28;20049;-68
2023/01/03 00:58:59;;;;;;;26.92;7.60;;;4.00;99.90;;;;;;5073095;28;20079;-67
2023/01/03 01:01:27;;;;;;;18.63;7.72;;;3.40;99.90;;;;;;5073779;28;20083;-68
2023/01/03 01:04:02;;;;;;;14.85;6.95;;;3.30;99.90;;;;;;5073363;28;20088;-74
2023/01/03 01:06:30;;;;;;;22.77;7.00;;;3.30;99.90;;;;;;5073460;28;20044;-71
2023/01/03 01:08:58;;;;;;;22.52;7.35;;;3.60;99.90;;;;;;5072557;28;20401;-68
2023/01/03 01:11:25;;;;;;;21.45;7.85;;;3.20;99.90;;;;;;5073439;28;20076;-69
2023/01/03 01:13:52;;;;;;;18.08;7.05;;;3.70;99.90;;;;;;5073519;28;20509;-70
2023/01/03 01:16:23;;;;;;;15.02;6.65;;;3.90;99.90;;;;;;5072806;28;20056;-68
2023/01/03 01:18:52;;;;;;;24.45;7.55;;;3.20;99.90;;;;;;5073837;28;20048;-68
2023/01/03 01:21:23;;;;;;;19.58;7.45;;;3.20;99.90;;;;;;5072655;28;20098;-68
2023/01/03 01:23:49;;;;;;;16.95;6.15;;;3.10;99.90;;;;;;5073717;28;20044;-68
2023/01/03 01:26:17;;;;;;;21.55;7.00;;;3.20;99.90;;;;;;5072921;28;20539;-69
2023/01/03 01:28:43;;;;;;;23.23;6.60;;;3.10;99.90;;;;;;5072915;28;20045;-69
2023/01/03 01:31:12;;;;;;;;;;;3.20;99.90;;;;;;5073124;28;20037;-70
2023/01/03 01:33:38;;;;;;;16.02;6.78;;;3.00;99.90;;;;;;5073155;28;19989;-71
2023/01/03 01:36:09;;;;;;;14.68;6.20;;;3.30;99.90;;;;;;5072327;28;20524;-70
2023/01/03 01:38:35;;;;;;;12.70;5.85;;;3.00;99.90;;;;;;5072986;28;20543;-68
2023/01/03 01:41:01;;;;;;;14.15;6.22;;;2.90;99.90;;;;;;5071252;28;20048;-69
2023/01/03 01:46:16;;;;;;;14.02;6.00;;;3.10;99.90;;;;;;5072386;28;19920;-69
2023/01/03 01:48:42;;;;;;;20.08;6.47;;;2.80;99.90;;;;;;5073113;28;20099;-68
2023/01/03 01:51:09;;;;;;;16.33;6.50;;;2.70;99.90;;;;;;5071884;28;20080;-68
2023/01/03 01:53:39;;;;;;;16.35;6.40;;;2.60;99.90;;;;;;5072040;28;20049;-69
2023/01/03 01:56:17;;;;;;;14.80;6.32;;;2.60;99.90;;;;;;5072512;28;20051;-69
2023/01/03 01:58:46;;;;;;;21.60;6.50;;;2.60;99.90;;;;;;5072534;28;20067;-68
2023/01/03 02:01:15;;;;;;;17.25;6.25;;;2.90;99.90;;;;;;5071865;28;20133;-71
2023/01/03 02:03:43;;;;;;;18.05;6.82;;;2.50;99.90;;;;;;5072436;28;20044;-68
2023/01/03 02:06:12;;;;;;;15.20;6.70;;;2.50;99.90;;;;;;5071851;28;20083;-68
2023/01/03 02:08:38;;;;;;;16.58;6.60;;;2.70;99.90;;;;;;5071849;28;20382;-68
2023/01/03 02:11:15;;;;;;;20.20;6.50;;;3.00;99.90;;;;;;5071943;28;20043;-68
2023/01/03 02:14:02;;;;;;;19.98;6.30;;;2.50;99.90;;;;;;5072148;28;20075;-68
2023/01/03 02:16:34;;;;;;;21.95;7.13;;;2.50;99.90;;;;;;5072351;28;20429;-69
2023/01/03 02:19:26;;;;;;;22.13;7.28;;;3.30;99.90;;;;;;5072207;28;20493;-71
2023/01/03 02:22:01;;;;;;;19.17;7.50;;;2.40;99.90;;;;;;5071925;28;20048;-70
2023/01/03 02:24:38;;;;;;;16.02;7.07;;;2.40;99.90;;;;;;5072117;28;20052;-70
2023/01/03 02:27:23;;;;;;;25.02;7.18;;;2.40;99.90;;;;;;5071905;28;20178;-67
2023/01/03 02:30:25;;;;;;;17.88;7.30;;;2.40;99.90;;;;;;5071914;28;20040;-69
2023/01/03 02:33:18;;;;;;;21.65;7.18;;;2.40;99.90;;;;;;5071894;28;20036;-67
2023/01/03 02:36:03;;;;;;;18.85;7.05;;;2.40;99.90;;;;;;5071975;28;20473;-68
2023/01/03 02:39:11;;;;;;;19.45;7.35;;;2.40;99.90;;;;;;5070781;28;20230;-68
2023/01/03 02:41:46;;;;;;;26.20;8.10;;;2.40;99.90;;;;;;5072014;28;20036;-67
2023/01/03 02:44:35;;;;;;;23.08;8.45;;;2.40;99.90;;;;;;5071465;28;20063;-68
2023/01/03 02:47:10;;;;;;;24.25;8.70;;;2.30;99.90;;;;;;5071895;28;20048;-68
2023/01/03 02:49:46;;;;;;;25.38;7.75;;;2.30;99.90;;;;;;5071812;28;20080;-67
2023/01/03 02:52:18;;;;;;;23.58;8.18;;;2.30;99.90;;;;;;5070919;28;20367;-70
2023/01/03 02:54:55;;;;;;;23.95;8.45;;;2.30;99.90;;;;;;5071999;28;20079;-68
2023/01/03 02:57:26;;;;;;;26.95;8.90;;;2.30;99.90;;;;;;5071295;28;20067;-68
2023/01/03 02:59:53;;;;;;;25.95;9.13;;;2.20;99.90;;;;;;5071970;28;20123;-68
2023/01/03 03:02:21;;;;;;;24.10;8.75;;;2.20;99.90;;;;;;5071005;28;20040;-68
2023/01/03 03:04:52;;;;;;;28.30;9.60;;;2.60;99.90;;;;;;5071492;28;20063;-68
2023/01/03 03:07:32;;;;;;;36.03;10.48;;;2.20;99.90;;;;;;5070646;28;20500;-69
2023/01/03 03:16:04;;;;;;;27.60;9.90;;;2.20;99.90;;;;;;5071123;28;20600;-68
2023/01/03 03:18:42;;;;;;;33.97;10.13;;;2.50;99.90;;;;;;5059121;28;20068;-70
2023/01/03 03:29:59;;;;;;;32.55;11.05;;;2.10;99.90;;;;;;5058759;28;20064;-68
2023/01/03 03:32:27;;;;;;;37.55;11.35;;;2.20;99.90;;;;;;5074236;28;20123;-70
2023/01/03 03:34:56;;;;;;;27.17;11.02;;;2.20;99.90;;;;;;5075711;28;20047;-68
2023/01/03 03:37:26;;;;;;;30.50;11.02;;;2.20;99.90;;;;;;5074593;28;20057;-68
2023/01/03 03:45:53;;;;;;;34.25;11.88;;;2.20;99.90;;;;;;5075548;28;20049;-68
2023/01/03 03:48:28;;;;;;;30.10;11.10;;;2.20;99.90;;;;;;5056938;28;20052;-68
2023/01/03 03:51:07;;;;;;;42.78;11.80;;;2.30;99.90;;;;;;5075122;28;20381;-68
2023/01/03 03:53:36;;;;;;;33.72;12.02;;;2.30;99.90;;;;;;5074918;28;20113;-69
2023/01/03 03:56:14;;;;;;;37.08;10.75;;;2.30;99.90;;;;;;5074922;28;20049;-69
2023/01/03 03:58:42;;;;;;;31.15;11.20;;;2.30;99.90;;;;;;5075359;28;20089;-68
2023/01/03 04:01:13;;;;;;;33.08;11.23;;;2.30;99.90;;;;;;5074945;28;20041;-74
2023/01/03 04:03:41;;;;;;;38.83;11.45;;;2.30;99.90;;;;;;5074676;28;20443;-68
2023/01/03 04:06:14;;;;;;;32.33;11.50;;;3.00;99.90;;;;;;5074044;28;20056;-73
2023/01/03 04:08:40;;;;;;;45.83;12.27;;;2.30;99.90;;;;;;5074859;28;20469;-68
2023/01/03 04:11:06;;;;;;;33.00;11.75;;;2.30;99.90;;;;;;5075034;28;20039;-70
2023/01/03 04:13:33;;;;;;;38.42;12.90;;;2.30;99.90;;;;;;5074587;28;20044;-68
2023/01/03 04:15:59;;;;;;;33.58;12.27;;;2.30;99.90;;;;;;5073670;28;20052;-71
2023/01/03 04:18:25;;;;;;;36.13;11.77;;;2.30;99.90;;;;;;5074292;28;20041;-68
2023/01/03 04:20:51;;;;;;;31.85;10.77;;;2.30;99.90;;;;;;5074321;28;20101;-70
2023/01/03 04:23:16;;;;;;;29.95;10.85;;;2.30;99.90;;;;;;5073988;28;20048;-69
2023/01/03 04:25:42;;;;;;;29.17;10.18;;;2.80;99.90;;;;;;5074382;28;20133;-70
2023/01/03 04:28:08;;;;;;;26.88;10.13;;;2.50;99.90;;;;;;5074659;28;20070;-68
2023/01/03 04:30:34;;;;;;;30.40;9.68;;;2.70;99.90;;;;;;5073655;28;20503;-68
2023/01/03 04:33:03;;;;;;;30.73;10.25;;;2.00;99.90;;;;;;5074176;28;20056;-68
2023/01/03 04:35:30;;;;;;;22.58;9.50;;;1.90;99.90;;;;;;5074147;28;20052;-67
2023/01/03 04:37:57;;;;;;;28.52;10.57;;;1.80;99.90;;;;;;5073535;28;20127;-68
2023/01/03 04:40:22;;;;;;;29.90;10.02;;;1.80;99.90;;;;;;5074011;28;20056;-68
2023/01/03 04:45:33;;;;;;;27.05;10.65;;;1.80;99.90;;;;;;5073621;28;20672;-70
2023/01/03 04:47:58;;;;;;;;;;;1.80;99.90;;;;;;5074342;28;20048;-68
2023/01/03 04:50:24;;;;;;;26.55;10.27;;;2.10;99.90;;;;;;5073741;28;19920;-68
2023/01/03 04:52:49;;;;;;;34.90;11.88;;;1.70;99.90;;;;;;5073530;28;20079;-69
2023/01/03 04:55:15;;;;;;;27.42;11.02;;;1.70;99.90;;;;;;5072147;28;20045;-69
2023/01/03 04:57:41;;;;;;;32.25;11.85;;;1.60;99.90;;;;;;5074119;28;20051;-68
2023/01/03 05:00:07;;;;;;;32.92;12.52;;;1.60;99.90;;;;;;5073875;28;20055;-68
2023/01/03 05:02:33;;;;;;;30.55;11.25;;;1.50;99.90;;;;;;5073320;28;20048;-68
2023/01/03 05:04:59;;;;;;;32.03;12.18;;;1.80;99.90;;;;;;5073690;28;20057;-68
2023/01/03 05:07:29;;;;;;;32.72;11.77;;;1.40;99.90;;;;;;5072855;28;20036;-68
2023/01/03 05:09:54;;;;;;;30.33;11.57;;;1.40;99.90;;;;;;5073940;28;20440;-70
2023/01/03 05:12:20;;;;;;;36.53;12.38;;;1.40;99.90;;;;;;5073062;28;20120;-69
2023/01/03 05:14:46;;;;;;;44.08;13.90;;;1.40;99.90;;;;;;5073531;28;20048;-68
2023/01/03 05:17:11;;;;;;;38.35;12.65;;;1.40;99.90;;;;;;5073762;28;20485;-69
2023/01/03 05:25:48;;;;;;;46.42;15.05;;;1.40;99.90;;;;;;5073401;28;20041;-68
2023/01/03 05:27:55;;;;;;;43.97;14.55;;;2.00;99.90;;;;;;5073475;28;20095;-68
2023/01/03 05:30:20;;;;;;;36.05;14.13;;;1.50;99.90;;;;;;5073042;28;20059;-71
2023/01/03 05:32:46;;;;;;;41.60;14.88;;;1.50;99.90;;;;;;5071796;28;20044;-68
2023/01/03 05:35:12;;;;;;;39.85;13.25;;;1.50;99.90;;;;;;5073649;28;20091;-69
2023/01/03 05:37:37;;;;;;;38.75;13.65;;;1.50;99.90;;;;;;5072144;28;20036;-68
2023/01/03 05:40:04;;;;;;;45.47;14.75;;;1.40;99.90;;;;;;5073368;28;20047;-68
2023/01/03 05:42:29;;;;;;;;;;;1.50;99.90;;;;;;5073386;28;20056;-68
2023/01/03 05:44:55;;;;;;;47.45;15.93;;;1.50;99.90;;;;;;5073273;28;20361;-68
2023/01/03 05:47:20;;;;;;;39.92;13.25;;;1.50;99.90;;;;;;5072200;28;20097;-68
2023/01/03 05:49:46;;;;;;;52.10;16.08;;;2.10;99.90;;;;;;5073063;28;20055;-68
2023/01/03 05:52:12;;;;;;;38.05;15.35;;;1.50;99.90;;;;;;5072330;28;20495;-68
2023/01/03 05:54:37;;;;;;;47.83;15.95;;;1.50;99.90;;;;;;5071762;28;20087;-68
2023/01/03 05:57:03;;;;;;;42.65;15.77;;;1.60;99.90;;;;;;5072546;28;20099;-69
2023/01/03 05:59:29;;;;;;;51.28;15.38;;;2.00;99.90;;;;;;5072287;28;20048;-69
2023/01/03 06:01:54;;;;;;;45.10;15.90;;;1.50;99.90;;;;;;5072513;28;20037;-68
2023/01/03 06:04:20;;;;;;;42.25;14.10;;;1.50;99.90;;;;;;5072307;28;20056;-74
2023/01/03 06:06:46;;;;;;;37.42;14.20;;;1.50;99.90;;;;;;5071813;28;20056;-69
2023/01/03 06:09:12;;;;;;;42.10;14.07;;;1.40;99.90;;;;;;5072450;28;20091;-68
2023/01/03 06:11:39;;;;;;;40.65;14.95;;;1.40;99.90;;;;;;5072150;28;20047;-68
2023/01/03 06:14:05;;;;;;;41.78;15.02;;;1.40;99.90;;;;;;5072209;28;20048;-68
2023/01/03 06:19:15;;;;;;;44.80;16.25;;;1.80;99.90;;;;;;5072438;28;20051;-68
2023/01/03 06:21:41;;;;;;;43.78;15.82;;;1.40;99.90;;;;;;5071214;28;20127;-70
2023/01/03 06:24:07;;;;;;;51.83;15.68;;;1.40;99.90;;;;;;5072470;28;20041;-67
2023/01/03 06:26:33;;;;;;;50.58;17.15;;;1.50;99.90;;;;;;5071497;28;20052;-69
2023/01/03 06:28:58;;;;;;;57.67;16.02;;;1.50;99.90;;;;;;5072409;28;20049;-68
2023/01/03 06:31:24;;;;;;;245.13;29.42;;;1.60;99.90;;;;;;5071076;28;20102;-68
2023/01/03 06:33:50;;;;;;;357.42;33.92;;;1.60;99.90;;;;;;5072199;28;20048;-69
2023/01/03 06:36:19;;;;;;;347.50;33.67;;;1.60;99.90;;;;;;5071500;28;20055;-67
2023/01/03 06:38:44;;;;;;;301.13;30.58;;;1.70;99.90;;;;;;5071438;28;20052;-68
2023/01/03 06:41:12;;;;;;;268.85;27.85;;;1.60;99.90;;;;;;5072189;28;20044;-68
2023/01/03 06:43:38;;;;;;;302.20;31.70;;;1.60;99.90;;;;;;5071438;28;20133;-70
2023/01/03 06:54:21;;;;;;;224.23;24.45;;;1.50;99.90;;;;;;5072071;28;20432;-68
2023/01/03 06:56:47;;;;;;;208.88;22.55;;;2.20;99.90;;;;;;5071066;28;20044;-67
2023/01/03 06:59:13;;;;;;;;;;;1.50;99.90;;;;;;5072422;28;20041;-68
2023/01/03 07:01:39;;;;;;;207.30;22.60;;;1.50;99.90;;;;;;5071236;28;19973;-68
2023/01/03 07:04:05;;;;;;;363.55;32.15;;;1.50;99.90;;;;;;5071433;28;20044;-69
2023/01/03 07:06:30;;;;;;;468.13;43.13;;;1.50;99.90;;;;;;5069843;28;20063;-68
2023/01/03 07:08:56;;;;;;;363.55;31.60;;;1.50;99.90;;;;;;5071665;28;20051;-68
2023/01/03 07:11:25;;;;;;;270.70;26.27;;;1.60;99.90;;;;;;5071668;28;20623;-67
2023/01/03 07:13:58;;;;;;;272.75;24.00;;;1.60;99.90;;;;;;5071203;28;20253;-68
2023/01/03 07:16:29;;;;;;;289.50;29.38;;;1.60;99.90;;;;;;5070334;28;20076;-68
2023/01/03 07:18:55;;;;;;;204.80;22.77;;;1.70;99.90;;;;;;5070205;28;20041;-68
2023/01/03 07:21:25;;;;;;;;;;;1.70;99.90;;;;;;5071321;28;20153;-68
2023/01/03 07:23:55;;;;;;;275.60;27.17;;;1.70;99.90;;;;;;5070062;28;20031;-69
2023/01/03 07:26:23;;;;;;;200.82;23.38;;;1.80;99.90;;;;;;5071125;28;20141;-69
2023/01/03 07:28:49;;;;;;;270.08;27.20;;;1.80;99.90;;;;;;5071297;28;20221;-68
2023/01/03 07:31:16;;;;;;;170.93;22.17;;;1.90;99.90;;;;;;5071040;28;20043;-68
2023/01/03 07:33:41;;;;;;;;;;;2.00;99.90;;;;;;5071456;28;20053;-67
2023/01/03 07:36:09;;;;;;;184.02;22.50;;;2.00;99.90;;;;;;5070887;28;19928;-69
2023/01/03 07:38:38;;;;;;;237.05;23.27;;;2.10;99.90;;;;;;5070090;28;20056;-68
2023/01/03 07:41:07;;;;;;;268.63;27.13;;;2.20;99.90;;;;;;5071071;28;20033;-67
2023/01/03 07:43:36;;;;;;;247.48;27.70;;;2.70;99.90;;;;;;5070982;28;20408;-69
2023/01/03 07:46:11;;;;;;;343.85;35.83;;;2.40;99.90;;;;;;5071337;28;20048;-68
2023/01/03 07:48:37;;;;;;;300.98;29.92;;;2.50;99.90;;;;;;5070792;28;20049;-68
2023/01/03 07:51:04;;;;;;;;;;;2.60;99.90;;;;;;5071371;28;20362;-69
2023/01/03 07:53:30;;;;;;;269.67;28.52;;;2.70;99.90;;;;;;5071030;28;19921;-73
2023/01/03 07:56:03;;;;;;;236.10;28.77;;;2.70;99.90;;;;;;5070893;28;20049;-68
2023/01/03 07:58:28;;;;;;;128.13;21.13;;;2.80;99.90;;;;;;5070726;28;20517;-68
2023/01/03 08:00:54;;;;;;;236.75;28.42;;;2.90;99.90;;;;;;5068857;28;20056;-68
2023/01/03 08:03:20;;;;;;;117.18;19.58;;;3.00;99.90;;;;;;5070805;28;20051;-68
2023/01/03 08:05:45;;;;;;;201.32;26.38;;;3.00;99.90;;;;;;5070610;28;20052;-69
2023/01/03 08:08:11;;;;;;;132.23;20.95;;;3.80;99.90;;;;;;5070436;28;20044;-72
2023/01/03 08:13:21;;;;;;;90.15;17.77;;;3.30;99.90;;;;;;5070251;28;20401;-79
2023/01/03 08:15:55;;;;;;;88.55;19.17;;;3.50;99.90;;;;;;5069362;28;20051;-65
2023/01/03 08:18:23;;;;;;;116.30;21.40;;;3.70;99.90;;;;;;5073637;28;20562;-65
2023/01/03 08:20:50;;;;;;;102.85;21.23;;;3.80;99.90;;;;;;5073803;28;20048;-73
2023/01/03 08:23:16;;;;;;;120.05;21.95;;;3.80;99.90;;;;;;5073721;28;20049;-68
2023/01/03 08:25:42;;;;;;;100.65;21.25;;;3.70;99.90;;;;;;5074357;28;20048;-68
2023/01/03 08:28:09;;;;;;;110.85;21.85;;;3.70;99.90;;;;;;5073099;28;20051;-68
2023/01/03 08:30:46;;;;;;;93.13;20.92;;;3.70;99.90;;;;;;5074310;28;20098;-73
2023/01/03 08:33:13;;;;;;;;;;;3.70;99.90;;;;;;5074619;28;20066;-69
2023/01/03 08:35:43;;;;;;;85.68;21.05;;;3.80;99.90;;;;;;5073899;28;19924;-68
2023/01/03 08:38:13;;;;;;;81.70;19.90;;;3.80;99.90;;;;;;5073905;28;20045;-68
2023/01/03 08:40:41;;;;;;;71.28;19.15;;;3.80;99.90;;;;;;5073793;28;20045;-68
2023/01/03 08:43:09;;;;;;;86.50;19.40;;;3.80;99.90;;;;;;5074390;28;20045;-69
2023/01/03 08:45:37;;;;;;;89.60;20.50;;;3.90;99.90;;;;;;5073840;28;20044;-74
2023/01/03 08:48:03;;;;;;;88.07;21.00;;;3.90;99.90;;;;;;5074044;28;20131;-69
2023/01/03 08:50:31;;;;;;;;;;;3.90;99.90;;;;;;5074545;28;20055;-70
2023/01/03 08:52:58;;;;;;;74.15;18.27;;;4.00;99.90;;;;;;5072766;28;19920;-70
2023/01/03 08:55:24;;;;;;;73.75;18.27;;;3.90;99.90;;;;;;5074218;28;20527;-69
2023/01/03 08:57:49;;;;;;;67.53;17.80;;;4.00;99.90;;;;;;5073311;28;20124;-69
2023/01/03 09:00:15;;;;;;;75.50;18.08;;;4.00;99.90;;;;;;5073880;28;20052;-68
2023/01/03 09:02:41;;;;;;;69.78;16.27;;;4.00;99.90;;;;;;5073075;28;20478;-71
2023/01/03 09:05:07;;;;;;;67.93;18.55;;;4.10;99.90;;;;;;5073732;28;20576;-69
2023/01/03 09:07:33;;;;;;;68.65;18.67;;;4.00;99.90;;;;;;5073220;28;20052;-70
2023/01/03 09:09:59;;;;;;;75.13;18.45;;;4.10;99.90;;;;;;5073706;28;20044;-68
2023/01/03 09:12:26;;;;;;;61.72;18.42;;;4.10;99.90;;;;;;5073399;28;20086;-69
2023/01/03 09:14:51;;;;;;;63.63;19.50;;;4.20;99.90;;;;;;5072972;28;20049;-68
2023/01/03 09:17:17;;;;;;;64.32;18.23;;;4.30;99.90;;;;;;5073557;28;20489;-67
2023/01/03 09:19:43;;;;;;;54.00;15.93;;;4.10;99.90;;;;;;5073182;28;20052;-68
2023/01/03 09:22:08;;;;;;;55.03;16.10;;;4.20;99.90;;;;;;5072602;28;20041;-68
2023/01/03 09:24:34;;;;;;;48.63;17.35;;;4.20;99.90;;;;;;5073573;28;20496;-67
2023/01/03 09:27:00;;;;;;;49.40;17.10;;;4.10;99.90;;;;;;5073019;28;20478;-67
2023/01/03 09:29:25;;;;;;;55.75;16.48;;;4.10;99.90;;;;;;5072822;28;20485;-68
2023/01/03 09:31:51;;;;;;;55.05;16.15;;;4.20;99.90;;;;;;5072461;28;20052;-68
2023/01/03 09:34:17;;;;;;;51.78;17.20;;;4.20;99.90;;;;;;5072859;28;20087;-67
2023/01/03 09:36:42;;;;;;;54.25;17.08;;;4.20;99.90;;;;;;5072165;28;20062;-70
2023/01/03 09:39:08;;;;;;;46.50;16.65;;;4.30;99.90;;;;;;5073306;28;20048;-67
2023/01/03 09:41:34;;;;;;;54.85;17.20;;;4.50;99.90;;;;;;5072792;28;20132;-69
2023/01/03 09:44:04;;;;;;;;;;;4.30;99.90;;;;;;5073369;28;20044;-69
2023/01/03 09:46:31;;;;;;;47.63;17.02;;;4.30;99.90;;;;;;5072695;28;19924;-68
2023/01/03 09:48:59;;;;;;;58.00;18.42;;;4.40;99.90;;;;;;5072761;28;20048;-68
2023/01/03 10:03:51;;;;;;;60.25;17.30;;;4.50;99.90;;;;;;5037974;28;20056;-69
2023/01/03 10:06:42;;;;;;;57.05;17.42;;;4.50;99.90;;;;;;5072198;28;20425;-69
2023/01/03 10:09:34;;;;;;;61.20;19.45;;;4.50;99.90;;;;;;5072524;28;20109;-67
2023/01/03 10:12:11;;;;;;;55.65;18.30;;;4.50;99.90;;;;;;5071982;28;20040;-67
2023/01/03 10:15:01;;;;;;;65.20;19.00;;;4.60;99.90;;;;;;5072490;28;20051;-69
2023/01/03 10:17:56;;;;;;;60.75;19.80;;;4.60;99.90;;;;;;5071914;28;20481;-67
2023/01/03 10:20:40;;;;;;;76.65;20.25;;;4.70;99.90;;;;;;5054383;28;20063;-68
2023/01/03 10:23:08;;;;;;;68.22;19.30;;;4.70;99.90;;;;;;5071505;28;20154;-68
2023/01/03 10:25:37;;;;;;;68.03;19.65;;;4.70;99.90;;;;;;5072187;28;20119;-68
2023/01/03 10:28:24;;;;;;;70.13;19.67;;;4.70;99.90;;;;;;5071545;28;20079;-70
2023/01/03 10:31:01;;;;;;;;;;;4.70;99.90;;;;;;5072353;28;20123;-69
2023/01/03 10:33:50;;;;;;;57.80;18.73;;;4.80;99.90;;;;;;5072078;28;19946;-67
2023/01/03 10:36:18;;;;;;;64.93;19.55;;;4.90;99.90;;;;;;5071407;28;20504;-70
2023/01/03 10:38:44;;;;;;;55.78;19.35;;;4.90;99.90;;;;;;5072032;28;20055;-68
2023/01/03 10:41:15;;;;;;;;;;;4.90;99.90;;;;;;5071709;28;20102;-67
2023/01/03 10:43:42;;;;;;;68.32;18.83;;;5.00;99.90;;;;;;5071950;28;20380;-68
2023/01/03 10:46:15;;;;;;;59.53;20.48;;;5.10;99.90;;;;;;5070239;28;20590;-69
2023/01/03 10:48:44;;;;;;;59.35;19.98;;;5.10;99.90;;;;;;5072276;28;20563;-67
2023/01/03 10:51:39;;;;;;;56.63;18.10;;;5.10;99.90;;;;;;5070542;28;20574;-68
2023/01/03 10:54:17;;;;;;;56.17;19.10;;;5.20;99.90;;;;;;5071326;28;20507;-67
2023/01/03 10:56:44;;;;;;;55.22;19.38;;;5.30;99.90;;;;;;5071720;28;20084;-68
2023/01/03 10:59:27;;;;;;;52.47;20.25;;;5.40;99.90;;;;;;5071514;28;20119;-69
2023/01/03 11:02:11;;;;;;;55.45;18.90;;;5.40;99.90;;;;;;5071160;28;20040;-68
2023/01/03 11:04:37;;;;;;;57.53;18.08;;;5.40;99.90;;;;;;5071705;28;20100;-67
2023/01/03 11:07:10;;;;;;;56.22;18.42;;;5.40;99.90;;;;;;5070535;28;20429;-68
2023/01/03 11:09:52;;;;;;;50.35;18.17;;;5.40;99.90;;;;;;5071669;28;20052;-68
2023/01/03 11:12:27;;;;;;;47.25;17.67;;;5.40;99.90;;;;;;5071434;28;20075;-70
2023/01/03 11:14:55;;;;;;;50.13;19.40;;;5.40;99.90;;;;;;5071419;28;20048;-68
2023/01/03 11:17:22;;;;;;;46.92;17.13;;;5.50;99.90;;;;;;5071236;28;20071;-67
2023/01/03 11:19:49;;;;;;;53.10;16.83;;;5.50;99.90;;;;;;5071661;28;20049;-68
2023/01/03 11:22:39;;;;;;;40.20;15.77;;;5.50;99.90;;;;;;5070516;28;20120;-68
2023/01/03 11:25:08;;;;;;;39.35;15.38;;;5.60;99.90;;;;;;5070978;28;20048;-72
2023/01/03 11:28:05;;;;;;;40.63;14.80;;;5.60;99.90;;;;;;5071205;28;20080;-68
2023/01/03 11:30:46;;;;;;;51.50;16.30;;;5.70;99.90;;;;;;5071532;28;20114;-68
2023/01/03 11:33:35;;;;;;;47.60;15.85;;;5.70;99.90;;;;;;5070907;28;20078;-69
2023/01/03 11:36:21;;;;;;;36.70;13.20;;;5.80;99.90;;;;;;5070967;28;20044;-67
2023/01/03 11:39:27;;;;;;;29.77;13.05;;;5.80;99.90;;;;;;5071323;28;20095;-68
2023/01/03 11:41:58;;;;;;;33.28;12.80;;;5.90;99.90;;;;;;5059542;28;20059;-74
2023/01/03 11:44:51;;;;;;;30.17;11.50;;;6.00;99.90;;;;;;5071275;28;20123;-68
2023/01/03 11:47:35;;;;;;;30.73;11.98;;;6.00;99.90;;;;;;5071024;28;20040;-70
2023/01/03 11:50:38;;;;;;;26.85;10.25;;;6.10;99.90;;;;;;5071007;28;20044;-69
2023/01/03 11:53:28;;;;;;;23.95;10.38;;;6.10;99.90;;;;;;5072137;28;20044;-68
2023/01/03 11:56:13;;;;;;;26.13;9.60;;;6.20;99.90;;;;;;5073617;28;20551;-74
2023/01/03 11:59:11;;;;;;;20.92;9.80;;;6.20;99.90;;;;;;5074676;28;20398;-68
2023/01/03 12:02:00;;;;;;;24.38;9.40;;;6.20;99.90;;;;;;5073992;28;20481;-67
2023/01/03 12:04:46;;;;;;;20.80;9.50;;;6.20;99.90;;;;;;5044704;28;20071;-69
2023/01/03 12:07:45;;;;;;;21.73;8.55;;;6.20;99.90;;;;;;5073456;28;20451;-68
2023/01/03 12:10:32;;;;;;;20.80;8.55;;;6.30;99.90;;;;;;5073705;28;20527;-70
2023/01/03 12:12:57;;;;;;;24.98;10.15;;;6.30;99.90;;;;;;5073623;28;20043;-68
2023/01/03 12:15:46;;;;;;;17.33;8.65;;;6.30;99.90;;;;;;5074050;28;20048;-69
2023/01/03 12:18:21;;;;;;;18.98;9.13;;;6.40;99.90;;;;;;5072849;28;20053;-69
2023/01/03 12:20:54;;;;;;;20.80;8.17;;;6.40;99.90;;;;;;5073741;28;20079;-69
2023/01/03 12:23:47;;;;;;;19.15;8.82;;;6.40;99.90;;;;;;5073290;28;20042;-69
2023/01/03 12:26:15;;;;;;;21.15;9.38;;;6.40;99.90;;;;;;5073747;28;20048;-69
2023/01/03 12:28:47;;;;;;;24.77;8.93;;;6.40;99.90;;;;;;5074269;28;20052;-69
2023/01/03 12:31:41;;;;;;;22.60;9.00;;;6.40;99.90;;;;;;5072200;28;20080;-69
2023/01/03 12:34:23;;;;;;;18.08;9.27;;;6.40;99.90;;;;;;5073695;28;20091;-69
2023/01/03 12:37:10;;;;;;;21.83;9.43;;;6.40;99.90;;;;;;5073410;28;20052;-68
2023/01/03 12:39:58;;;;;;;22.33;9.93;;;6.40;99.90;;;;;;5073941;28;20504;-68
2023/01/03 12:42:36;;;;;;;25.38;10.30;;;6.40;99.90;;;;;;5073408;28;20119;-69
2023/01/03 12:45:27;;;;;;;22.02;9.52;;;6.40;99.90;;;;;;5073126;28;20144;-69
2023/01/03 12:48:20;;;;;;;22.60;9.00;;;6.50;99.90;;;;;;5073192;28;20126;-69
2023/01/03 12:50:50;;;;;;;26.05;10.35;;;6.50;99.90;;;;;;5073365;28;20049;-71
2023/01/03 12:53:30;;;;;;;24.17;9.55;;;6.50;99.90;;;;;;5072593;28;20076;-68
2023/01/03 12:56:23;;;;;;;24.08;9.80;;;6.50;99.90;;;;;;5072986;28;20144;-68
2023/01/03 12:59:00;;;;;;;23.77;10.27;;;6.50;99.90;;;;;;5073188;28;20055;-71
2023/01/03 13:01:27;;;;;;;;;;;6.50;99.90;;;;;;5073077;28;20090;-68
2023/01/03 13:04:01;;;;;;;22.45;9.45;;;6.50;99.90;;;;;;5071176;28;20392;-70
2023/01/03 13:06:35;;;;;;;29.98;9.85;;;6.60;99.90;;;;;;5071528;28;20116;-69
2023/01/03 13:09:10;;;;;;;19.92;8.48;;;6.60;99.90;;;;;;5072929;28;20044;-73
2023/01/03 13:11:41;;;;;;;25.05;9.23;;;6.60;99.90;;;;;;5072652;28;20044;-68
2023/01/03 13:14:26;;;;;;;24.52;9.68;;;6.60;99.90;;;;;;5072942;28;20155;-68
2023/01/03 13:17:05;;;;;;;21.02;8.57;;;6.60;99.90;;;;;;5073157;28;20045;-67
2023/01/03 13:19:34;;;;;;;18.85;8.60;;;6.60;99.90;;;;;;5073518;28;20060;-68
2023/01/03 13:22:01;;;;;;;24.30;8.60;;;6.70;99.90;;;;;;5072935;28;20102;-70
2023/01/03 13:24:50;;;;;;;25.25;9.32;;;6.70;99.90;;;;;;5072728;28;20051;-71
2023/01/03 13:27:24;;;;;;;20.90;8.18;;;6.70;99.90;;;;;;5072917;28;20044;-68
2023/01/03 13:29:57;;;;;;;22.70;8.90;;;6.70;99.90;;;;;;5072410;28;20477;-69
2023/01/03 13:32:27;;;;;;;19.17;8.13;;;6.70;99.90;;;;;;5072636;28;20028;-68
2023/01/03 13:34:52;;;;;;;21.17;7.43;;;6.80;99.90;;;;;;5072320;28;20569;-68
2023/01/03 13:37:21;;;;;;;21.75;8.50;;;6.80;99.90;;;;;;5071784;28;20131;-67
2023/01/03 13:39:49;;;;;;;23.80;8.40;;;6.80;99.90;;;;;;5072775;28;20052;-68
2023/01/03 13:42:31;;;;;;;19.80;7.65;;;6.80;99.90;;;;;;5071875;28;20127;-68
2023/01/03 13:45:18;;;;;;;18.38;7.45;;;6.80;99.90;;;;;;5073080;28;20106;-70
2023/01/03 13:47:52;;;;;;;17.97;7.37;;;6.90;99.90;;;;;;5072730;28;20095;-70
2023/01/03 13:50:25;;;;;;;18.70;8.52;;;6.90;99.90;;;;;;5072582;28;20285;-69
2023/01/03 13:52:59;;;;;;;21.23;7.68;;;6.90;99.90;;;;;;5072244;28;20127;-69
2023/01/03 13:55:43;;;;;;;20.42;8.20;;;6.90;99.90;;;;;;5072578;28;20119;-69
2023/01/03 13:58:29;;;;;;;16.40;7.22;;;6.90;99.90;;;;;;5072631;28;20059;-68
2023/01/03 14:00:58;;;;;;;17.13;7.13;;;6.90;99.90;;;;;;5072616;28;20055;-69
2023/01/03 14:03:44;;;;;;;16.92;7.93;;;7.00;99.90;;;;;;5072099;28;20040;-68